Main page
METAR-TAF:

METAR-TAF

Airports :

Mashhad International Airport

Mashhad, Iran

latitude: 36-16N, longitude: 059-38E, elevation: 989 m

Current weather observation

The report was made 37 minutes ago, at 16:30 UTC
Wind 4 kt from the Southeast
Temperature 11°C
Humidity 35%
Pressure 1024 hPa
Visibility 10 km or more
Few clouds at a height of 4000 ft

METAR: OIMM 181630Z 14004KT 9999 FEW040 11/M04 Q1024 A3024

Time: 20:37 (17:07 UTC)

Forecast

The report was made 5 hours and 37 minutes ago, at 11:30 UTC
Forecast valid from 18 at 12 UTC to 19 at 18 UTC
Wind 8 kt from the East/Southeast
Visibility: 8000 m
Few clouds at a height of 3500 ft

TAF: OIMM 181130Z 1812/1918 12004MPS 8000 FEW035

Weather observations and forecasts of more than 4000 airports (METAR and TAF reports).

The available stations are represented by yellow and red dots on the map.

Hover mouse over dot to see the name of the station.

Then click to see weather observations and forecasts.

To change the map : click on the green buttons with a black cross to zoom in, on the green button with a dash to zoom out, or on the green arrows for adjacent maps.


METAR-TAF: